createdAt,value
2022-12-29T00:02:15.949Z,23.25
2022-12-29T00:04:43.438Z,22.77
2022-12-29T00:07:10.948Z,22.63
2022-12-29T00:09:38.573Z,22.10
2022-12-29T00:12:06.536Z,21.02
2022-12-29T00:14:52.840Z,20.88
2022-12-29T00:17:20.297Z,21.58
2022-12-29T00:20:06.626Z,21.20
2022-12-29T00:22:53.171Z,21.52
2022-12-29T00:25:39.535Z,19.70
2022-12-29T00:28:28.108Z,20.05
2022-12-29T00:31:14.375Z,19.67
2022-12-29T00:34:00.377Z,19.77
2022-12-29T00:36:30.422Z,18.98
2022-12-29T00:39:22.765Z,18.83
2022-12-29T00:42:08.720Z,18.95
2022-12-29T00:44:36.166Z,20.55
2022-12-29T00:47:05.423Z,20.92
2022-12-29T00:49:33.738Z,21.15
2022-12-29T00:52:01.869Z,20.85
2022-12-29T00:54:33.405Z,21.40
2022-12-29T00:57:01.891Z,20.98
2022-12-29T00:59:29.264Z,20.42
2022-12-29T01:01:58.523Z,19.92
2022-12-29T01:04:26.856Z,19.73
2022-12-29T01:06:54.753Z,20.10
2022-12-29T01:09:41.250Z,21.23
2022-12-29T01:12:09.848Z,21.92
2022-12-29T01:14:37.961Z,21.35
2022-12-29T01:17:05.768Z,21.75
2022-12-29T01:19:34.115Z,21.42
2022-12-29T01:22:01.805Z,20.60
2022-12-29T01:24:29.363Z,22.27
2022-12-29T01:26:56.887Z,21.83
2022-12-29T01:29:24.371Z,21.33
2022-12-29T01:31:51.940Z,21.48
2022-12-29T01:34:19.642Z,22.15
2022-12-29T01:36:47.207Z,21.25
2022-12-29T01:39:14.634Z,21.88
2022-12-29T01:41:42.138Z,22.55
2022-12-29T01:44:28.380Z,21.85
2022-12-29T01:46:55.872Z,21.67
2022-12-29T01:49:28.212Z,23.45
2022-12-29T01:51:57.849Z,23.45
2022-12-29T01:54:27.150Z,22.13
2022-12-29T01:56:57.021Z,23.30
2022-12-29T01:59:26.062Z,22.52
2022-12-29T02:01:54.515Z,22.45
2022-12-29T02:04:24.094Z,23.10
2022-12-29T02:06:54.643Z,23.35
2022-12-29T02:09:22.457Z,23.95
2022-12-29T02:11:51.738Z,23.17
2022-12-29T02:14:19.214Z,22.92
2022-12-29T02:16:58.709Z,23.40
2022-12-29T02:19:38.581Z,23.63
2022-12-29T02:22:06.260Z,22.67
2022-12-29T02:24:33.695Z,25.23
2022-12-29T02:27:10.400Z,25.23
2022-12-29T02:29:56.767Z,24.30
2022-12-29T02:32:27.061Z,24.40
2022-12-29T02:35:10.455Z,24.45
2022-12-29T02:37:54.624Z,25.88
2022-12-29T02:40:29.491Z,24.38
2022-12-29T02:43:17.311Z,24.80
2022-12-29T02:46:06.029Z,25.10
2022-12-29T02:48:42.361Z,25.75
2022-12-29T02:51:13.371Z,26.80
2022-12-29T02:53:59.932Z,27.20
2022-12-29T02:56:27.533Z,26.38
2022-12-29T02:58:55.047Z,26.50
2022-12-29T03:02:03.064Z,27.10
2022-12-29T03:04:30.835Z,27.00
2022-12-29T03:07:02.943Z,25.77
2022-12-29T03:09:54.006Z,26.88
2022-12-29T03:12:21.541Z,28.13
2022-12-29T03:15:20.631Z,28.73
2022-12-29T03:17:53.433Z,27.67
2022-12-29T03:20:24.201Z,27.10
2022-12-29T03:22:57.347Z,26.65
2022-12-29T03:25:27.885Z,24.75
2022-12-29T03:27:58.124Z,25.15
2022-12-29T03:30:27.907Z,24.25
2022-12-29T03:33:03.337Z,24.13
2022-12-29T03:35:34.853Z,24.98
2022-12-29T03:38:09.579Z,24.73
2022-12-29T03:40:37.097Z,24.50
2022-12-29T03:43:05.205Z,24.30
2022-12-29T03:45:34.988Z,24.05
2022-12-29T03:48:02.604Z,24.73
2022-12-29T03:50:30.991Z,24.90
2022-12-29T03:52:59.189Z,24.02
2022-12-29T03:55:28.458Z,25.02
2022-12-29T03:57:55.952Z,26.10
2022-12-29T04:00:34.665Z,24.60
2022-12-29T04:03:02.254Z,26.42
2022-12-29T04:05:29.890Z,24.83
2022-12-29T04:07:58.238Z,24.90
2022-12-29T04:10:25.835Z,24.85
2022-12-29T04:12:57.016Z,24.20
2022-12-29T04:15:27.498Z,25.83
2022-12-29T04:17:55.204Z,25.58
2022-12-29T04:20:41.385Z,24.80
2022-12-29T04:23:09.155Z,25.05
2022-12-29T04:25:38.399Z,24.42
2022-12-29T04:28:08.998Z,24.95
2022-12-29T04:31:06.562Z,25.23
2022-12-29T04:33:40.877Z,25.23
2022-12-29T04:36:08.669Z,24.85
2022-12-29T04:38:38.087Z,25.65
2022-12-29T04:41:06.519Z,25.08
2022-12-29T04:43:36.452Z,25.70
2022-12-29T04:46:12.894Z,26.13
2022-12-29T04:49:05.583Z,25.58
2022-12-29T04:51:56.287Z,27.20
2022-12-29T04:54:24.501Z,27.23
2022-12-29T04:57:00.330Z,27.67
2022-12-29T04:59:27.895Z,26.80
2022-12-29T05:01:58.924Z,27.95
2022-12-29T05:04:26.565Z,27.83
2022-12-29T05:06:54.055Z,27.75
2022-12-29T05:09:21.665Z,26.80
2022-12-29T05:11:49.140Z,26.88
2022-12-29T05:14:16.645Z,27.52
2022-12-29T05:16:46.481Z,27.27
2022-12-29T05:19:14.019Z,25.35
2022-12-29T05:21:41.951Z,27.10
2022-12-29T05:24:09.436Z,29.63
2022-12-29T05:26:37.257Z,27.98
2022-12-29T05:29:23.371Z,27.98
2022-12-29T05:31:51.125Z,28.17
2022-12-29T05:34:18.620Z,28.17
2022-12-29T05:36:46.805Z,30.10
2022-12-29T05:39:15.736Z,33.40
2022-12-29T05:41:45.501Z,32.45
2022-12-29T05:44:51.080Z,31.85
2022-12-29T05:47:37.216Z,32.25
2022-12-29T05:50:24.913Z,33.72
2022-12-29T05:53:13.034Z,34.35
2022-12-29T05:55:46.631Z,33.25
2022-12-29T06:00:43.617Z,33.60
2022-12-29T06:03:13.837Z,37.83
2022-12-29T06:05:42.701Z,42.33
2022-12-29T06:08:10.134Z,63.70
2022-12-29T06:10:37.733Z,69.82
2022-12-29T06:13:06.992Z,58.90
2022-12-29T06:15:38.081Z,38.75
2022-12-29T06:18:08.422Z,38.38
2022-12-29T06:20:36.010Z,38.05
2022-12-29T06:23:05.980Z,38.75
2022-12-29T06:25:34.761Z,42.83
2022-12-29T06:28:03.546Z,44.78
2022-12-29T06:30:30.996Z,43.17
2022-12-29T06:33:00.018Z,45.67
2022-12-29T06:35:27.601Z,122.75
2022-12-29T06:37:55.293Z,92.65
2022-12-29T06:40:24.170Z,37.50
2022-12-29T06:43:17.860Z,34.92
2022-12-29T06:46:08.244Z,34.13
2022-12-29T06:48:35.930Z,30.17
2022-12-29T06:51:03.338Z,30.33
2022-12-29T06:53:30.861Z,31.65
2022-12-29T06:55:58.254Z,32.22
2022-12-29T06:58:25.688Z,30.60
2022-12-29T07:00:53.221Z,32.88
2022-12-29T07:03:20.812Z,34.28
2022-12-29T07:05:48.262Z,35.55
2022-12-29T07:08:15.723Z,35.97
2022-12-29T07:10:43.157Z,37.60
2022-12-29T07:13:10.750Z,39.33
2022-12-29T07:15:38.756Z,36.92
2022-12-29T07:18:06.312Z,37.67
2022-12-29T07:20:33.756Z,36.72
2022-12-29T07:23:01.269Z,36.22
2022-12-29T07:25:29.835Z,36.33
2022-12-29T07:27:57.408Z,37.33
2022-12-29T07:30:24.807Z,36.95
2022-12-29T07:32:52.364Z,39.95
2022-12-29T07:35:19.790Z,36.55
2022-12-29T07:37:47.333Z,35.75
2022-12-29T07:40:15.448Z,37.08
2022-12-29T07:42:43.006Z,36.50
2022-12-29T07:45:11.097Z,36.30
2022-12-29T07:48:03.886Z,37.20
2022-12-29T07:50:31.357Z,37.78
2022-12-29T07:52:58.759Z,35.33
2022-12-29T07:55:26.561Z,39.75
2022-12-29T07:57:58.116Z,34.53
2022-12-29T08:00:25.665Z,35.47
2022-12-29T08:02:53.140Z,35.55
2022-12-29T08:05:20.575Z,31.73
2022-12-29T08:07:48.225Z,31.50
2022-12-29T08:10:16.516Z,27.63
2022-12-29T08:12:44.128Z,29.23
2022-12-29T08:15:13.027Z,28.92
2022-12-29T08:17:40.633Z,27.70
2022-12-29T08:20:08.827Z,24.85
2022-12-29T08:22:36.308Z,24.50
2022-12-29T08:25:04.144Z,25.85
2022-12-29T08:27:31.623Z,24.17
2022-12-29T08:30:01.007Z,25.42
2022-12-29T08:32:29.390Z,25.77
2022-12-29T08:34:56.868Z,27.75
2022-12-29T08:37:30.718Z,22.98
2022-12-29T08:39:59.792Z,22.67
2022-12-29T08:42:32.040Z,23.33
2022-12-29T08:45:00.421Z,23.90
2022-12-29T08:47:28.310Z,22.98
2022-12-29T08:49:55.788Z,24.27
2022-12-29T08:52:23.984Z,24.25
2022-12-29T08:54:51.736Z,23.55
2022-12-29T08:57:19.578Z,24.50
2022-12-29T09:02:32.853Z,23.35
2022-12-29T09:05:01.308Z,22.90
2022-12-29T09:07:28.792Z,21.48
2022-12-29T09:09:56.161Z,21.58
2022-12-29T09:12:23.741Z,20.90
2022-12-29T09:14:51.574Z,20.10
2022-12-29T09:17:37.752Z,21.70
2022-12-29T09:20:05.714Z,22.23
2022-12-29T09:22:33.191Z,23.08
2022-12-29T09:25:00.622Z,21.05
2022-12-29T09:27:28.057Z,21.95
2022-12-29T09:29:55.580Z,22.25
2022-12-29T09:32:23.720Z,21.27
2022-12-29T09:34:51.856Z,20.88
2022-12-29T09:37:19.301Z,21.50
2022-12-29T09:39:53.914Z,21.15
2022-12-29T09:42:27.442Z,22.27
2022-12-29T09:45:13.546Z,22.38
2022-12-29T09:47:42.353Z,23.02
2022-12-29T09:50:15.795Z,23.00
2022-12-29T09:52:50.309Z,21.20
2022-12-29T09:55:23.027Z,22.33
2022-12-29T09:57:56.245Z,22.92
2022-12-29T10:00:25.247Z,23.10
2022-12-29T10:02:56.155Z,24.13
2022-12-29T10:05:26.650Z,24.02
2022-12-29T10:08:01.947Z,24.88
2022-12-29T10:13:03.627Z,22.75
2022-12-29T10:15:40.304Z,25.70
2022-12-29T10:18:26.595Z,22.50
2022-12-29T10:20:59.555Z,23.98
2022-12-29T10:23:29.824Z,23.50
2022-12-29T10:25:58.153Z,21.98
2022-12-29T10:28:31.810Z,23.48
2022-12-29T10:31:03.588Z,23.10
2022-12-29T10:33:36.808Z,19.50
2022-12-29T10:36:12.574Z,18.75
2022-12-29T10:38:48.282Z,18.67
2022-12-29T10:41:18.944Z,17.33
2022-12-29T10:43:48.826Z,18.38
2022-12-29T10:46:20.860Z,19.55
2022-12-29T10:48:48.595Z,18.25
2022-12-29T10:51:20.970Z,19.20
2022-12-29T10:53:53.648Z,18.60
2022-12-29T10:56:45.961Z,17.05
2022-12-29T10:59:19.492Z,17.73
2022-12-29T11:01:55.692Z,18.38
2022-12-29T11:04:23.334Z,17.15
2022-12-29T11:06:52.254Z,18.38
2022-12-29T11:09:48.456Z,17.67
2022-12-29T11:12:29.432Z,17.75
2022-12-29T11:15:02.814Z,20.00
2022-12-29T11:17:30.327Z,19.45
2022-12-29T11:19:57.892Z,17.90
2022-12-29T11:22:26.580Z,17.27
2022-12-29T11:24:55.327Z,18.20
2022-12-29T11:27:27.280Z,17.30
2022-12-29T11:29:55.576Z,17.00
2022-12-29T11:32:28.805Z,18.23
2022-12-29T11:34:58.676Z,17.77
2022-12-29T11:37:43.592Z,16.50
2022-12-29T11:40:21.442Z,16.65
2022-12-29T11:42:50.613Z,17.75
2022-12-29T11:45:28.629Z,17.65
2022-12-29T11:48:01.077Z,17.83
2022-12-29T11:50:33.272Z,16.50
2022-12-29T11:53:02.116Z,16.45
2022-12-29T11:55:30.447Z,16.17
2022-12-29T11:57:59.353Z,15.48
2022-12-29T12:00:27.841Z,15.90
2022-12-29T12:02:55.740Z,15.95
2022-12-29T12:05:25.197Z,15.65
2022-12-29T12:08:03.042Z,15.60
2022-12-29T12:10:46.026Z,16.45
2022-12-29T12:13:36.332Z,15.90
2022-12-29T12:16:12.934Z,17.70
2022-12-29T12:18:47.551Z,16.92
2022-12-29T12:21:17.866Z,17.37
2022-12-29T12:23:54.432Z,16.17
2022-12-29T12:26:36.900Z,17.70
2022-12-29T12:29:15.215Z,16.65
2022-12-29T12:31:56.026Z,14.18
2022-12-29T12:34:31.392Z,15.45
2022-12-29T12:37:17.739Z,15.85
2022-12-29T12:39:57.237Z,17.83
2022-12-29T12:42:40.583Z,16.92
2022-12-29T12:45:26.937Z,20.67
2022-12-29T12:48:13.070Z,16.48
2022-12-29T12:50:52.667Z,15.80
2022-12-29T12:53:35.559Z,15.82
2022-12-29T12:56:15.313Z,15.95
2022-12-29T12:58:42.787Z,16.50
2022-12-29T13:01:16.323Z,16.63
2022-12-29T13:03:52.058Z,15.18
2022-12-29T13:06:38.521Z,14.82
2022-12-29T13:09:15.036Z,15.68
2022-12-29T13:11:46.495Z,15.02
2022-12-29T13:14:37.794Z,14.90
2022-12-29T13:17:05.341Z,15.18
2022-12-29T13:19:32.917Z,15.50
2022-12-29T13:22:09.672Z,14.40
2022-12-29T13:24:44.693Z,14.27
2022-12-29T13:27:12.136Z,14.13
2022-12-29T13:29:59.745Z,14.07
2022-12-29T13:32:39.462Z,24.77
2022-12-29T13:35:06.957Z,18.65
2022-12-29T13:37:35.921Z,15.13
2022-12-29T13:40:11.853Z,15.05
2022-12-29T13:42:39.375Z,13.63
2022-12-29T13:45:18.488Z,14.27
2022-12-29T13:48:11.716Z,13.98
2022-12-29T13:50:41.377Z,14.68
2022-12-29T13:53:08.912Z,15.55
2022-12-29T13:55:42.167Z,16.13
2022-12-29T13:58:14.869Z,14.98
2022-12-29T14:00:51.449Z,13.40
2022-12-29T14:03:37.726Z,15.25
2022-12-29T14:06:25.806Z,14.35
2022-12-29T14:08:54.711Z,13.05
2022-12-29T14:11:25.765Z,13.82
2022-12-29T14:13:53.600Z,14.82
2022-12-29T14:16:28.524Z,13.50
2022-12-29T14:18:58.336Z,14.00
2022-12-29T14:21:30.919Z,15.23
2022-12-29T14:24:18.338Z,17.55
2022-12-29T14:26:45.813Z,18.73
2022-12-29T14:29:33.447Z,18.05
2022-12-29T14:32:00.880Z,18.10
2022-12-29T14:34:32.397Z,18.85
2022-12-29T14:36:59.850Z,21.83
2022-12-29T14:39:33.198Z,24.67
2022-12-29T14:42:03.432Z,24.33
2022-12-29T14:44:31.024Z,23.23
2022-12-29T14:47:01.061Z,21.02
2022-12-29T14:49:30.463Z,22.90
2022-12-29T14:52:19.540Z,25.10
2022-12-29T14:54:50.729Z,26.15
2022-12-29T14:57:22.751Z,25.63
2022-12-29T14:59:54.488Z,28.35
2022-12-29T15:02:24.046Z,29.73
2022-12-29T15:04:52.287Z,31.70
2022-12-29T15:07:20.579Z,35.72
2022-12-29T15:09:56.456Z,37.38
2022-12-29T15:12:30.157Z,37.38
2022-12-29T15:14:59.368Z,37.83
2022-12-29T15:17:31.603Z,38.40
2022-12-29T15:20:00.488Z,36.00
2022-12-29T15:22:28.189Z,33.92
2022-12-29T15:24:56.668Z,35.90
2022-12-29T15:27:25.421Z,36.00
2022-12-29T15:30:03.790Z,37.20
2022-12-29T15:32:40.504Z,37.45
2022-12-29T15:35:24.305Z,37.13
2022-12-29T15:37:51.768Z,35.53
2022-12-29T15:40:26.573Z,36.17
2022-12-29T15:43:03.263Z,39.58
2022-12-29T15:45:33.934Z,39.38
2022-12-29T15:48:01.667Z,39.05
2022-12-29T15:50:30.380Z,35.50
2022-12-29T15:52:58.541Z,36.17
2022-12-29T15:55:28.992Z,31.98
2022-12-29T15:58:00.380Z,27.30
2022-12-29T16:00:29.478Z,26.98
2022-12-29T16:02:58.147Z,27.65
2022-12-29T16:05:26.067Z,28.42
2022-12-29T16:07:57.876Z,27.23
2022-12-29T16:10:42.165Z,28.38
2022-12-29T16:13:21.595Z,41.30
2022-12-29T16:15:49.616Z,34.03
2022-12-29T16:18:28.130Z,29.95
2022-12-29T16:20:55.909Z,27.90
2022-12-29T16:23:27.941Z,28.48
2022-12-29T16:25:56.539Z,29.83
2022-12-29T16:28:24.934Z,29.33
2022-12-29T16:30:59.936Z,28.35
2022-12-29T16:33:46.624Z,27.13
2022-12-29T16:36:23.389Z,25.77
2022-12-29T16:38:50.955Z,25.58
2022-12-29T16:41:30.407Z,23.33
2022-12-29T16:44:18.420Z,23.70
2022-12-29T16:46:58.836Z,23.58
2022-12-29T16:49:27.483Z,24.33
2022-12-29T16:51:55.867Z,28.20
2022-12-29T16:54:25.120Z,39.10
2022-12-29T16:56:53.932Z,41.78
2022-12-29T16:59:35.386Z,41.85
2022-12-29T17:02:07.624Z,33.88
2022-12-29T17:04:35.315Z,35.70
2022-12-29T17:07:02.982Z,41.45
2022-12-29T17:09:31.735Z,48.17
2022-12-29T17:12:08.697Z,53.05
2022-12-29T17:14:46.265Z,62.30
2022-12-29T17:17:21.602Z,60.45
2022-12-29T17:22:26.755Z,59.00
2022-12-29T17:24:55.254Z,67.88
2022-12-29T17:27:33.819Z,64.45
2022-12-29T17:30:06.528Z,59.38
2022-12-29T17:32:34.107Z,61.40
2022-12-29T17:35:01.696Z,78.55
2022-12-29T17:37:30.700Z,75.68
2022-12-29T17:39:58.353Z,71.60
2022-12-29T17:42:25.791Z,79.22
2022-12-29T17:44:53.292Z,96.35
2022-12-29T17:47:20.860Z,113.93
2022-12-29T17:49:48.375Z,109.68
2022-12-29T17:52:16.715Z,122.20
2022-12-29T17:54:47.118Z,126.57
2022-12-29T17:57:15.799Z,103.80
2022-12-29T17:59:43.827Z,90.43
2022-12-29T18:02:31.461Z,81.65
2022-12-29T18:04:59.868Z,73.20
2022-12-29T18:07:33.855Z,80.82
2022-12-29T18:10:03.230Z,88.15
2022-12-29T18:12:39.961Z,88.65
2022-12-29T18:15:08.539Z,88.72
2022-12-29T18:17:35.916Z,89.13
2022-12-29T18:20:03.310Z,89.85
2022-12-29T18:22:30.801Z,92.85
2022-12-29T18:24:58.234Z,88.43
2022-12-29T18:27:27.197Z,87.40
2022-12-29T18:29:54.575Z,87.70
2022-12-29T18:32:22.220Z,93.40
2022-12-29T18:34:49.688Z,98.28
2022-12-29T18:37:17.272Z,88.80
2022-12-29T18:39:44.776Z,72.32
2022-12-29T18:42:17.667Z,75.38
2022-12-29T18:44:45.127Z,83.18
2022-12-29T18:47:12.624Z,82.30
2022-12-29T18:49:40.231Z,93.15
2022-12-29T18:52:08.335Z,91.20
2022-12-29T18:54:35.775Z,95.03
2022-12-29T18:57:04.022Z,98.75
2022-12-29T18:59:31.746Z,99.80
2022-12-29T19:01:59.372Z,91.82
2022-12-29T19:04:26.985Z,97.15
2022-12-29T19:06:54.376Z,104.65
2022-12-29T19:09:21.803Z,88.45
2022-12-29T19:11:49.208Z,66.22
2022-12-29T19:14:17.598Z,70.55
2022-12-29T19:16:45.472Z,76.10
2022-12-29T19:19:17.002Z,74.93
2022-12-29T19:21:45.489Z,75.72
2022-12-29T19:24:13.032Z,69.00
2022-12-29T19:26:41.842Z,66.45
2022-12-29T19:29:14.591Z,71.57
2022-12-29T19:31:42.223Z,80.53
2022-12-29T19:34:10.746Z,79.57
2022-12-29T19:36:38.313Z,77.40
2022-12-29T19:39:06.111Z,74.53
2022-12-29T19:41:33.941Z,84.57
2022-12-29T19:44:01.579Z,92.15
2022-12-29T19:46:29.101Z,87.20
2022-12-29T19:48:59.025Z,86.03
2022-12-29T19:51:27.145Z,86.60
2022-12-29T19:53:55.009Z,89.10
2022-12-29T19:56:22.538Z,84.70
2022-12-29T19:58:50.821Z,85.93
2022-12-29T20:01:20.032Z,88.97
2022-12-29T20:03:47.659Z,98.07
2022-12-29T20:06:15.238Z,86.88
2022-12-29T20:08:42.736Z,82.70
2022-12-29T20:11:13.143Z,78.80
2022-12-29T20:13:41.019Z,80.72
2022-12-29T20:16:09.424Z,76.38
2022-12-29T20:18:37.000Z,74.65
2022-12-29T20:21:08.966Z,76.28
2022-12-29T20:23:38.232Z,78.03
2022-12-29T20:26:06.409Z,75.68
2022-12-29T20:28:33.894Z,76.05
2022-12-29T20:31:07.304Z,80.45
2022-12-29T20:33:35.799Z,76.22
2022-12-29T20:36:11.063Z,73.78
2022-12-29T20:41:06.016Z,66.00
2022-12-29T20:43:33.595Z,68.65
2022-12-29T20:46:01.464Z,68.85
2022-12-29T20:48:30.357Z,70.50
2022-12-29T20:51:00.453Z,71.53
2022-12-29T20:53:29.121Z,75.57
2022-12-29T20:56:00.842Z,68.00
2022-12-29T20:58:28.522Z,69.40
2022-12-29T21:00:56.228Z,72.53
2022-12-29T21:03:24.775Z,74.68
2022-12-29T21:05:53.754Z,82.15
2022-12-29T21:08:21.385Z,87.53
2022-12-29T21:10:49.517Z,83.82
2022-12-29T21:13:17.509Z,84.15
2022-12-29T21:15:45.471Z,82.57
2022-12-29T21:18:13.789Z,84.18
2022-12-29T21:20:41.622Z,82.18
2022-12-29T21:23:09.010Z,82.38
2022-12-29T21:25:39.450Z,81.75
2022-12-29T21:28:07.771Z,80.10
2022-12-29T21:30:35.967Z,76.78
2022-12-29T21:33:03.592Z,73.65
2022-12-29T21:35:31.094Z,72.53
2022-12-29T21:37:58.636Z,72.70
2022-12-29T21:40:26.014Z,72.93
2022-12-29T21:42:53.525Z,71.30
2022-12-29T21:45:27.032Z,74.18
2022-12-29T21:48:13.803Z,72.82
2022-12-29T21:51:00.696Z,73.00
2022-12-29T21:53:38.692Z,73.35
2022-12-29T21:56:09.111Z,74.18
2022-12-29T21:58:59.438Z,72.93
2022-12-29T22:01:45.964Z,81.75
2022-12-29T22:04:33.469Z,73.20
2022-12-29T22:07:20.644Z,68.68
2022-12-29T22:10:06.615Z,64.93
2022-12-29T22:12:53.023Z,68.50
2022-12-29T22:15:20.676Z,76.93
2022-12-29T22:17:49.238Z,78.78
2022-12-29T22:20:17.409Z,80.05
2022-12-29T22:22:44.995Z,77.95
2022-12-29T22:25:12.545Z,76.55
2022-12-29T22:27:40.003Z,76.28
2022-12-29T22:30:08.682Z,75.65
2022-12-29T22:32:36.318Z,72.97
2022-12-29T22:35:07.987Z,70.90
2022-12-29T22:37:36.568Z,69.32
2022-12-29T22:40:04.733Z,70.32
2022-12-29T22:42:32.418Z,69.10
2022-12-29T22:44:59.793Z,66.80
2022-12-29T22:47:27.437Z,67.85
2022-12-29T22:49:54.861Z,67.80
2022-12-29T22:52:22.304Z,68.40
2022-12-29T22:54:49.683Z,66.00
2022-12-29T22:57:17.117Z,65.97
2022-12-29T22:59:44.602Z,63.60
2022-12-29T23:02:12.054Z,64.25
2022-12-29T23:07:27.013Z,63.67
2022-12-29T23:09:54.460Z,63.42
2022-12-29T23:12:22.199Z,65.50
2022-12-29T23:14:49.570Z,62.40
2022-12-29T23:17:17.041Z,65.13
2022-12-29T23:19:44.525Z,59.92
2022-12-29T23:22:12.169Z,63.53
2022-12-29T23:24:39.581Z,56.53
2022-12-29T23:27:07.083Z,53.42
2022-12-29T23:29:34.477Z,49.67
2022-12-29T23:32:01.892Z,47.83
2022-12-29T23:34:29.388Z,46.72
2022-12-29T23:36:56.914Z,45.33
2022-12-29T23:39:24.888Z,46.45
2022-12-29T23:41:52.852Z,46.63
2022-12-29T23:44:20.337Z,47.47
2022-12-29T23:46:47.984Z,51.10
2022-12-29T23:49:15.433Z,54.67
2022-12-29T23:51:42.882Z,55.15
2022-12-29T23:54:10.226Z,54.65
2022-12-29T23:56:37.629Z,57.28
2022-12-29T23:59:05.879Z,53.83
